createdAt,value
2023-05-25T00:02:06.370Z,9.60
2023-05-25T00:04:35.442Z,9.60
2023-05-25T00:07:03.990Z,9.60
2023-05-25T00:09:32.018Z,9.70
2023-05-25T00:12:00.896Z,9.70
2023-05-25T00:14:30.845Z,9.80
2023-05-25T00:17:03.516Z,9.80
2023-05-25T00:19:33.900Z,9.70
2023-05-25T00:22:02.254Z,9.70
2023-05-25T00:24:30.812Z,9.70
2023-05-25T00:26:58.865Z,9.70
2023-05-25T00:29:27.154Z,9.70
2023-05-25T00:31:55.403Z,9.60
2023-05-25T00:34:23.790Z,9.50
2023-05-25T00:36:53.247Z,9.50
2023-05-25T00:39:21.854Z,9.40
2023-05-25T00:41:50.910Z,9.30
2023-05-25T00:44:21.704Z,9.30
2023-05-25T00:46:51.665Z,9.20
2023-05-25T00:49:23.019Z,9.20
2023-05-25T00:51:54.262Z,9.20
2023-05-25T00:54:22.507Z,9.10
2023-05-25T00:56:53.442Z,9.10
2023-05-25T00:59:27.972Z,9.10
2023-05-25T01:01:57.950Z,9.00
2023-05-25T01:04:29.751Z,9.00
2023-05-25T01:07:01.161Z,9.10
2023-05-25T01:09:31.264Z,9.00
2023-05-25T01:12:00.210Z,8.90
2023-05-25T01:14:29.376Z,8.90
2023-05-25T01:16:58.930Z,8.90
2023-05-25T01:19:27.098Z,8.90
2023-05-25T01:22:03.626Z,8.80
2023-05-25T01:24:40.737Z,8.90
2023-05-25T01:27:15.270Z,8.80
2023-05-25T01:29:46.448Z,8.80
2023-05-25T01:32:15.191Z,8.80
2023-05-25T01:34:44.876Z,8.90
2023-05-25T01:37:14.437Z,8.90
2023-05-25T01:39:42.493Z,8.90
2023-05-25T01:42:19.670Z,9.10
2023-05-25T01:44:47.677Z,9.00
2023-05-25T01:47:21.215Z,8.90
2023-05-25T01:50:02.990Z,8.90
2023-05-25T01:52:37.163Z,8.90
2023-05-25T01:55:09.185Z,8.90
2023-05-25T01:57:42.568Z,8.90
2023-05-25T02:00:13.558Z,8.90
2023-05-25T02:02:43.711Z,8.80
2023-05-25T02:05:12.851Z,8.80
2023-05-25T02:07:42.362Z,8.70
2023-05-25T02:10:11.159Z,8.60
2023-05-25T02:12:39.255Z,8.70
2023-05-25T02:15:08.121Z,8.60
2023-05-25T02:17:37.493Z,8.50
2023-05-25T02:20:08.259Z,8.50
2023-05-25T02:22:37.789Z,8.50
2023-05-25T02:25:10.550Z,8.50
2023-05-25T02:27:38.648Z,8.50
2023-05-25T02:30:08.917Z,8.40
2023-05-25T02:32:37.564Z,8.40
2023-05-25T02:35:07.477Z,8.30
2023-05-25T02:37:35.549Z,8.30
2023-05-25T02:40:05.085Z,8.40
2023-05-25T02:42:34.512Z,8.40
2023-05-25T02:45:02.732Z,8.50
2023-05-25T02:47:31.537Z,8.50
2023-05-25T02:49:59.642Z,8.40
2023-05-25T02:52:27.817Z,8.40
2023-05-25T02:54:55.990Z,8.40
2023-05-25T02:57:31.597Z,8.40
2023-05-25T03:00:02.259Z,8.30
2023-05-25T03:02:30.865Z,8.30
2023-05-25T03:05:00.853Z,8.30
2023-05-25T03:07:31.029Z,8.30
2023-05-25T03:09:59.511Z,8.10
2023-05-25T03:12:27.675Z,8.10
2023-05-25T03:14:55.762Z,8.10
2023-05-25T03:17:25.409Z,8.20
2023-05-25T03:19:53.672Z,8.10
2023-05-25T03:22:22.025Z,8.10
2023-05-25T03:24:50.262Z,8.10
2023-05-25T03:27:18.945Z,8.00
2023-05-25T03:29:49.539Z,8.00
2023-05-25T03:32:17.661Z,8.00
2023-05-25T03:34:47.178Z,8.00
2023-05-25T03:37:17.649Z,8.00
2023-05-25T03:39:45.758Z,8.00
2023-05-25T03:42:13.944Z,8.00
2023-05-25T03:44:42.098Z,8.00
2023-05-25T03:47:11.354Z,8.10
2023-05-25T03:49:39.444Z,8.20
2023-05-25T03:52:08.989Z,8.20
2023-05-25T03:54:37.146Z,8.20
2023-05-25T03:57:06.151Z,8.20
2023-05-25T03:59:34.254Z,8.30
2023-05-25T04:02:02.358Z,8.30
2023-05-25T04:04:30.457Z,8.40
2023-05-25T04:06:59.790Z,8.40
2023-05-25T04:09:29.275Z,8.50
2023-05-25T04:11:57.358Z,8.60
2023-05-25T04:14:25.675Z,8.60
2023-05-25T04:16:53.917Z,8.60
2023-05-25T04:19:22.101Z,8.70
2023-05-25T04:21:50.136Z,8.90
2023-05-25T04:24:18.335Z,9.00
2023-05-25T04:26:47.766Z,9.50
2023-05-25T04:29:16.135Z,10.20
2023-05-25T04:32:09.525Z,10.40
2023-05-25T04:34:52.221Z,11.10
2023-05-25T04:37:27.363Z,12.30
2023-05-25T04:39:57.629Z,13.30
2023-05-25T04:42:28.804Z,13.90
2023-05-25T04:44:57.376Z,14.60
2023-05-25T04:47:26.163Z,14.90
2023-05-25T04:49:55.598Z,14.90
2023-05-25T04:52:24.290Z,15.20
2023-05-25T04:54:53.555Z,15.50
2023-05-25T04:57:21.648Z,15.80
2023-05-25T04:59:51.835Z,15.60
2023-05-25T05:02:19.957Z,15.80
2023-05-25T05:04:52.436Z,15.90
2023-05-25T05:07:21.828Z,15.80
2023-05-25T05:09:50.578Z,16.00
2023-05-25T05:12:19.345Z,16.50
2023-05-25T05:14:52.181Z,16.00
2023-05-25T05:17:21.494Z,15.90
2023-05-25T05:19:51.379Z,16.80
2023-05-25T05:22:19.578Z,17.00
2023-05-25T05:24:47.612Z,16.20
2023-05-25T05:27:22.493Z,14.90
2023-05-25T05:29:57.703Z,14.60
2023-05-25T05:32:25.803Z,14.00
2023-05-25T05:34:54.057Z,13.90
2023-05-25T05:37:39.512Z,13.80
2023-05-25T05:40:08.984Z,14.20
2023-05-25T05:42:37.853Z,14.80
2023-05-25T05:45:08.589Z,15.70
2023-05-25T05:47:36.777Z,16.10
2023-05-25T05:50:05.646Z,15.00
2023-05-25T05:52:36.157Z,15.30
2023-05-25T05:55:05.305Z,15.20
2023-05-25T05:57:34.588Z,14.70
2023-05-25T06:00:06.587Z,15.20
2023-05-25T06:02:44.614Z,15.20
2023-05-25T06:05:19.228Z,15.20
2023-05-25T06:07:47.524Z,15.40
2023-05-25T06:10:16.211Z,15.20
2023-05-25T06:12:45.336Z,15.30
2023-05-25T06:15:13.605Z,15.20
2023-05-25T06:17:43.223Z,14.50
2023-05-25T06:20:15.019Z,14.70
2023-05-25T06:22:43.780Z,14.40
2023-05-25T06:25:12.162Z,14.60
2023-05-25T06:27:40.212Z,14.10
2023-05-25T06:30:09.463Z,14.20
2023-05-25T06:32:38.357Z,13.90
2023-05-25T06:35:08.053Z,13.80
2023-05-25T06:37:38.532Z,13.80
2023-05-25T06:40:12.928Z,14.00
2023-05-25T06:42:41.702Z,14.40
2023-05-25T06:45:28.840Z,14.40
2023-05-25T06:47:57.456Z,14.00
2023-05-25T06:50:26.799Z,13.80
2023-05-25T06:52:56.254Z,13.80
2023-05-25T06:55:24.315Z,14.10
2023-05-25T06:57:52.365Z,14.40
2023-05-25T07:00:21.469Z,14.70
2023-05-25T07:02:49.823Z,14.90
2023-05-25T07:05:18.058Z,14.70
2023-05-25T07:07:46.285Z,14.60
2023-05-25T07:10:15.720Z,14.80
2023-05-25T07:12:44.166Z,15.30
2023-05-25T07:15:13.274Z,14.50
2023-05-25T07:17:41.425Z,14.10
2023-05-25T07:20:10.652Z,14.20
2023-05-25T07:22:39.481Z,14.40
2023-05-25T07:25:08.182Z,14.10
2023-05-25T07:27:37.556Z,13.80
2023-05-25T07:30:07.272Z,13.80
2023-05-25T07:32:35.510Z,13.70
2023-05-25T07:35:03.729Z,13.60
2023-05-25T07:37:31.790Z,13.60
2023-05-25T07:39:59.829Z,13.60
2023-05-25T07:42:34.065Z,13.70
2023-05-25T07:45:04.038Z,14.10
2023-05-25T07:47:32.185Z,14.10
2023-05-25T07:50:00.251Z,14.20
2023-05-25T07:52:28.348Z,13.80
2023-05-25T07:54:56.437Z,13.20
2023-05-25T07:57:25.229Z,13.10
2023-05-25T07:59:53.315Z,13.10
2023-05-25T08:02:22.984Z,13.10
2023-05-25T08:04:51.448Z,13.10
2023-05-25T08:07:20.839Z,13.00
2023-05-25T08:09:48.973Z,13.10
2023-05-25T08:12:37.884Z,12.90
2023-05-25T08:15:05.957Z,13.20
2023-05-25T08:17:35.476Z,13.20
2023-05-25T08:20:06.083Z,13.20
2023-05-25T08:22:34.169Z,13.00
2023-05-25T08:25:02.324Z,13.10
2023-05-25T08:27:31.694Z,13.20
2023-05-25T08:30:00.920Z,12.90
2023-05-25T08:32:29.015Z,13.20
2023-05-25T08:34:58.500Z,13.40
2023-05-25T08:37:26.527Z,13.50
2023-05-25T08:39:54.649Z,13.30
2023-05-25T08:42:23.790Z,13.40
2023-05-25T08:44:51.985Z,13.30
2023-05-25T08:47:23.784Z,13.20
2023-05-25T08:49:52.811Z,13.10
2023-05-25T08:52:24.600Z,13.20
2023-05-25T08:54:56.163Z,13.40
2023-05-25T08:57:30.482Z,13.30
2023-05-25T09:00:04.578Z,13.20
2023-05-25T09:02:36.883Z,13.20
2023-05-25T09:05:05.777Z,13.30
2023-05-25T09:07:35.782Z,13.20
2023-05-25T09:10:04.828Z,13.20
2023-05-25T09:12:33.565Z,13.20
2023-05-25T09:15:01.734Z,13.50
2023-05-25T09:17:29.911Z,13.70
2023-05-25T09:19:57.927Z,13.40
2023-05-25T09:22:26.088Z,13.40
2023-05-25T09:24:56.071Z,13.60
2023-05-25T09:27:24.998Z,13.60
2023-05-25T09:29:53.406Z,13.50
2023-05-25T09:32:21.630Z,13.70
2023-05-25T09:34:49.764Z,13.70
2023-05-25T09:37:20.098Z,13.60
2023-05-25T09:39:48.882Z,13.80
2023-05-25T09:42:18.718Z,13.70
2023-05-25T09:44:46.763Z,13.50
2023-05-25T09:47:16.763Z,13.60
2023-05-25T09:49:47.475Z,13.80
2023-05-25T09:52:16.326Z,14.00
2023-05-25T09:54:46.381Z,14.00
2023-05-25T09:57:14.490Z,14.00
2023-05-25T09:59:45.468Z,13.90
2023-05-25T10:02:14.045Z,14.00
2023-05-25T10:04:42.328Z,13.90
2023-05-25T10:07:10.904Z,14.10
2023-05-25T10:09:42.193Z,13.80
2023-05-25T10:12:11.177Z,13.80
2023-05-25T10:14:40.101Z,14.20
2023-05-25T10:17:12.586Z,14.30
2023-05-25T10:19:47.573Z,14.40
2023-05-25T10:22:21.843Z,14.50
2023-05-25T10:24:56.197Z,14.50
2023-05-25T10:27:27.374Z,14.80
2023-05-25T10:29:57.389Z,14.70
2023-05-25T10:32:28.163Z,14.70
2023-05-25T10:34:57.978Z,14.90
2023-05-25T10:37:28.182Z,14.90
2023-05-25T10:39:57.799Z,15.00
2023-05-25T10:42:27.054Z,15.20
2023-05-25T10:44:56.376Z,15.40
2023-05-25T10:47:26.584Z,15.40
2023-05-25T10:49:56.117Z,15.50
2023-05-25T10:52:28.654Z,15.20
2023-05-25T10:54:57.934Z,15.00
2023-05-25T10:57:27.277Z,14.90
2023-05-25T11:00:01.548Z,14.90
2023-05-25T11:02:32.188Z,14.70
2023-05-25T11:05:39.957Z,14.90
2023-05-25T11:08:09.890Z,15.00
2023-05-25T11:10:59.657Z,15.10
2023-05-25T11:13:40.625Z,15.00
2023-05-25T11:16:14.007Z,15.10
2023-05-25T11:18:45.955Z,15.00
2023-05-25T11:21:22.136Z,14.90
2023-05-25T11:23:57.983Z,15.10
2023-05-25T11:26:27.755Z,15.20
2023-05-25T11:28:58.753Z,15.10
2023-05-25T11:31:34.191Z,15.20
2023-05-25T11:34:07.228Z,15.20
2023-05-25T11:36:37.038Z,14.80
2023-05-25T11:39:13.860Z,14.80
2023-05-25T11:41:51.586Z,15.10
2023-05-25T11:44:28.585Z,15.20
2023-05-25T11:46:58.227Z,15.30
2023-05-25T11:49:28.177Z,15.10
2023-05-25T11:51:58.210Z,15.30
2023-05-25T11:54:27.272Z,15.50
2023-05-25T11:56:58.907Z,15.40
2023-05-25T11:59:29.463Z,15.80
2023-05-25T12:02:01.115Z,16.10
2023-05-25T12:04:31.117Z,16.10
2023-05-25T12:07:03.650Z,15.90
2023-05-25T12:09:32.133Z,15.70
2023-05-25T12:12:00.727Z,15.90
2023-05-25T12:14:28.792Z,15.80
2023-05-25T12:16:57.778Z,16.20
2023-05-25T12:19:26.151Z,16.10
2023-05-25T12:21:55.862Z,15.70
2023-05-25T12:24:25.111Z,15.70
2023-05-25T12:26:57.340Z,15.70
2023-05-25T12:29:26.270Z,15.70
2023-05-25T12:31:54.314Z,15.70
2023-05-25T12:34:22.615Z,15.70
2023-05-25T12:36:52.643Z,15.80
2023-05-25T12:39:38.769Z,15.50
2023-05-25T12:42:14.140Z,15.90
2023-05-25T12:44:42.747Z,15.80
2023-05-25T12:47:12.839Z,15.60
2023-05-25T12:49:41.927Z,15.80
2023-05-25T12:52:11.211Z,15.60
2023-05-25T12:54:44.010Z,15.60
2023-05-25T12:57:14.069Z,15.70
2023-05-25T12:59:43.240Z,15.80
2023-05-25T13:02:12.817Z,15.70
2023-05-25T13:04:42.569Z,15.90
2023-05-25T13:07:10.929Z,16.00
2023-05-25T13:09:40.453Z,16.10
2023-05-25T13:12:09.371Z,16.30
2023-05-25T13:14:37.551Z,16.20
2023-05-25T13:17:05.992Z,16.20
2023-05-25T13:19:34.138Z,16.20
2023-05-25T13:22:02.195Z,16.30
2023-05-25T13:24:30.981Z,16.50
2023-05-25T13:27:02.925Z,16.50
2023-05-25T13:29:30.973Z,16.30
2023-05-25T13:31:59.099Z,16.40
2023-05-25T13:34:27.215Z,16.60
2023-05-25T13:36:55.552Z,16.60
2023-05-25T13:39:23.605Z,16.70
2023-05-25T13:41:51.672Z,16.50
2023-05-25T13:44:21.103Z,16.80
2023-05-25T13:46:49.343Z,17.00
2023-05-25T13:49:19.448Z,17.20
2023-05-25T13:51:47.744Z,17.10
2023-05-25T13:54:15.829Z,17.00
2023-05-25T13:56:43.887Z,17.10
2023-05-25T13:59:16.224Z,16.70
2023-05-25T14:01:46.584Z,16.70
2023-05-25T14:04:18.735Z,16.40
2023-05-25T14:06:47.588Z,16.90
2023-05-25T14:09:16.177Z,16.90
2023-05-25T14:11:44.610Z,17.40
2023-05-25T14:14:27.054Z,17.70
2023-05-25T14:17:00.330Z,17.60
2023-05-25T14:19:29.618Z,16.90
2023-05-25T14:22:11.948Z,16.70
2023-05-25T14:24:41.909Z,16.70
2023-05-25T14:27:10.166Z,16.70
2023-05-25T14:29:38.818Z,16.70
2023-05-25T14:32:08.265Z,16.90
2023-05-25T14:34:39.188Z,16.90
2023-05-25T14:37:07.463Z,17.00
2023-05-25T14:39:36.251Z,17.00
2023-05-25T14:42:04.553Z,16.80
2023-05-25T14:44:32.713Z,16.80
2023-05-25T14:47:00.919Z,16.70
2023-05-25T14:49:31.178Z,16.70
2023-05-25T14:51:59.270Z,16.70
2023-05-25T14:54:27.792Z,16.50
2023-05-25T14:56:55.881Z,16.70
2023-05-25T14:59:23.965Z,16.90
2023-05-25T15:01:52.020Z,17.10
2023-05-25T15:04:20.300Z,17.10
2023-05-25T15:06:49.819Z,17.20
2023-05-25T15:09:19.221Z,17.50
2023-05-25T15:11:47.260Z,17.40
2023-05-25T15:14:16.324Z,17.20
2023-05-25T15:16:44.585Z,17.50
2023-05-25T15:19:15.284Z,17.50
2023-05-25T15:21:45.487Z,17.30
2023-05-25T15:24:16.681Z,17.20
2023-05-25T15:26:44.825Z,17.20
2023-05-25T15:29:12.925Z,17.20
2023-05-25T15:31:41.394Z,17.10
2023-05-25T15:34:11.134Z,17.00
2023-05-25T15:36:39.443Z,16.80
2023-05-25T15:39:09.032Z,16.70
2023-05-25T15:41:38.508Z,16.90
2023-05-25T15:44:08.637Z,17.10
2023-05-25T15:46:36.899Z,17.20
2023-05-25T15:49:10.746Z,17.40
2023-05-25T15:51:43.678Z,17.60
2023-05-25T15:54:14.353Z,17.60
2023-05-25T15:56:44.276Z,17.40
2023-05-25T15:59:13.175Z,17.30
2023-05-25T16:01:41.511Z,17.00
2023-05-25T16:04:09.767Z,16.80
2023-05-25T16:06:38.249Z,16.70
2023-05-25T16:09:06.664Z,16.70
2023-05-25T16:11:34.785Z,16.70
2023-05-25T16:14:04.215Z,16.80
2023-05-25T16:16:32.406Z,17.00
2023-05-25T16:19:00.612Z,17.10
2023-05-25T16:21:28.683Z,17.30
2023-05-25T16:23:56.775Z,17.60
2023-05-25T16:26:24.869Z,17.60
2023-05-25T16:28:52.914Z,17.70
2023-05-25T16:31:22.342Z,17.90
2023-05-25T16:33:50.400Z,17.80
2023-05-25T16:36:18.583Z,17.30
2023-05-25T16:38:46.751Z,17.10
2023-05-25T16:41:14.805Z,16.80
2023-05-25T16:43:42.798Z,16.70
2023-05-25T16:46:11.515Z,16.70
2023-05-25T16:48:41.040Z,16.70
2023-05-25T16:51:14.853Z,16.90
2023-05-25T16:53:43.521Z,16.90
2023-05-25T16:56:11.641Z,17.00
2023-05-25T16:58:39.879Z,17.10
2023-05-25T17:01:07.976Z,17.00
2023-05-25T17:03:36.107Z,17.00
2023-05-25T17:06:05.883Z,17.00
2023-05-25T17:08:35.088Z,17.00
2023-05-25T17:11:03.487Z,17.10
2023-05-25T17:13:31.632Z,16.90
2023-05-25T17:15:59.840Z,17.00
2023-05-25T17:18:28.602Z,17.00
2023-05-25T17:20:57.769Z,17.00
2023-05-25T17:23:27.201Z,16.90
2023-05-25T17:25:55.251Z,16.90
2023-05-25T17:28:23.278Z,16.90
2023-05-25T17:30:51.477Z,16.90
2023-05-25T17:33:19.503Z,16.90
2023-05-25T17:35:47.686Z,16.80
2023-05-25T17:38:15.856Z,16.80
2023-05-25T17:40:45.317Z,16.90
2023-05-25T17:43:13.387Z,16.80
2023-05-25T17:45:41.534Z,16.80
2023-05-25T17:48:09.778Z,16.80
2023-05-25T17:50:37.856Z,16.70
2023-05-25T17:53:05.901Z,16.70
2023-05-25T17:55:34.013Z,16.70
2023-05-25T17:58:03.407Z,16.70
2023-05-25T18:00:31.813Z,16.70
2023-05-25T18:03:00.170Z,16.60
2023-05-25T18:05:28.274Z,16.60
2023-05-25T18:07:56.325Z,16.60
2023-05-25T18:10:24.393Z,16.50
2023-05-25T18:12:52.781Z,16.50
2023-05-25T18:15:22.269Z,16.50
2023-05-25T18:17:50.461Z,16.40
2023-05-25T18:20:18.656Z,16.40
2023-05-25T18:22:46.961Z,16.40
2023-05-25T18:25:14.958Z,16.30
2023-05-25T18:27:42.916Z,16.30
2023-05-25T18:30:11.872Z,16.30
2023-05-25T18:32:41.340Z,16.20
2023-05-25T18:35:10.044Z,16.10
2023-05-25T18:37:38.090Z,16.10
2023-05-25T18:40:07.288Z,16.10
2023-05-25T18:42:35.728Z,16.10
2023-05-25T18:45:04.011Z,16.00
2023-05-25T18:47:32.223Z,15.90
2023-05-25T18:50:01.741Z,15.80
2023-05-25T18:52:29.842Z,15.80
2023-05-25T18:54:57.893Z,15.80
2023-05-25T18:57:25.974Z,15.70
2023-05-25T18:59:54.075Z,15.60
2023-05-25T19:02:22.273Z,15.60
2023-05-25T19:04:50.375Z,15.60
2023-05-25T19:07:19.879Z,15.60
2023-05-25T19:09:48.086Z,15.40
2023-05-25T19:12:16.334Z,15.40
2023-05-25T19:14:44.324Z,15.40
2023-05-25T19:17:12.380Z,15.20
2023-05-25T19:19:40.397Z,15.00
2023-05-25T19:22:08.678Z,14.90
2023-05-25T19:24:42.320Z,14.80
2023-05-25T19:27:10.950Z,14.70
2023-05-25T19:29:39.004Z,14.50
2023-05-25T19:32:07.332Z,14.40
2023-05-25T19:34:36.838Z,14.50
2023-05-25T19:39:39.976Z,14.40
2023-05-25T19:42:08.227Z,14.30
2023-05-25T19:44:36.358Z,14.20
2023-05-25T19:47:04.445Z,14.20
2023-05-25T19:49:32.644Z,14.20
2023-05-25T19:52:00.684Z,14.20
2023-05-25T19:54:28.730Z,14.20
2023-05-25T19:56:58.210Z,14.20
2023-05-25T19:59:27.911Z,14.00
2023-05-25T20:01:56.708Z,14.00
2023-05-25T20:04:25.152Z,14.10
2023-05-25T20:06:53.971Z,14.20
2023-05-25T20:09:29.851Z,14.20
2023-05-25T20:12:00.112Z,14.20
2023-05-25T20:14:28.290Z,14.30
2023-05-25T20:16:57.120Z,14.30
2023-05-25T20:19:25.328Z,14.40
2023-05-25T20:21:53.378Z,14.40
2023-05-25T20:24:22.105Z,14.40
2023-05-25T20:26:50.898Z,14.40
2023-05-25T20:29:20.298Z,14.40
2023-05-25T20:31:48.375Z,14.40
2023-05-25T20:34:16.585Z,14.30
2023-05-25T20:36:44.602Z,14.20
2023-05-25T20:39:12.677Z,14.10
2023-05-25T20:41:40.865Z,14.20
2023-05-25T20:44:09.958Z,14.10
2023-05-25T20:46:39.376Z,14.10
2023-05-25T20:49:07.467Z,14.10
2023-05-25T20:51:35.950Z,14.00
2023-05-25T20:54:04.062Z,13.90
2023-05-25T20:56:32.127Z,13.90
2023-05-25T20:59:00.179Z,13.90
2023-05-25T21:01:29.264Z,13.80
2023-05-25T21:03:58.884Z,13.70
2023-05-25T21:06:27.245Z,13.70
2023-05-25T21:08:55.696Z,13.70
2023-05-25T21:11:26.037Z,13.60
2023-05-25T21:13:54.058Z,13.60
2023-05-25T21:16:22.204Z,13.50
2023-05-25T21:18:50.361Z,13.40
2023-05-25T21:21:19.804Z,13.40
2023-05-25T21:23:47.816Z,13.40
2023-05-25T21:26:15.849Z,13.30
2023-05-25T21:28:43.892Z,13.20
2023-05-25T21:31:11.945Z,13.20
2023-05-25T21:33:40.587Z,13.10
2023-05-25T21:36:09.057Z,13.00
2023-05-25T21:38:38.476Z,12.90
2023-05-25T21:41:06.850Z,12.90
2023-05-25T21:43:34.836Z,12.80
2023-05-25T21:46:03.374Z,12.80
2023-05-25T21:48:31.420Z,12.70
2023-05-25T21:50:59.438Z,12.70
2023-05-25T21:53:27.502Z,12.60
2023-05-25T21:55:56.968Z,12.50
2023-05-25T21:58:25.011Z,12.40
2023-05-25T22:00:53.090Z,12.40
2023-05-25T22:03:21.253Z,12.40
2023-05-25T22:05:49.344Z,12.30
2023-05-25T22:08:17.423Z,12.30
2023-05-25T22:10:45.518Z,12.20
2023-05-25T22:13:14.965Z,12.20
2023-05-25T22:15:43.685Z,12.10
2023-05-25T22:18:12.022Z,12.00
2023-05-25T22:20:41.999Z,12.10
2023-05-25T22:23:12.777Z,12.00
2023-05-25T22:25:41.345Z,12.00
2023-05-25T22:28:09.384Z,11.80
2023-05-25T22:30:38.858Z,11.90
2023-05-25T22:33:07.321Z,11.80
2023-05-25T22:35:35.379Z,11.80
2023-05-25T22:38:03.438Z,11.70
2023-05-25T22:40:31.446Z,11.70
2023-05-25T22:42:59.529Z,11.70
2023-05-25T22:45:27.601Z,11.60
2023-05-25T22:47:57.850Z,11.50
2023-05-25T22:50:25.959Z,11.50
2023-05-25T22:52:53.982Z,11.40
2023-05-25T22:55:22.564Z,11.40
2023-05-25T22:57:50.565Z,11.40
2023-05-25T23:00:19.079Z,11.40
2023-05-25T23:02:47.248Z,11.40
2023-05-25T23:05:16.830Z,11.40
2023-05-25T23:07:44.896Z,11.40
2023-05-25T23:10:12.986Z,11.30
2023-05-25T23:12:41.044Z,11.20
2023-05-25T23:15:10.873Z,11.20
2023-05-25T23:17:38.929Z,11.20
2023-05-25T23:20:09.275Z,11.10
2023-05-25T23:22:38.735Z,11.10
2023-05-25T23:25:07.624Z,11.10
2023-05-25T23:27:35.797Z,11.00
2023-05-25T23:30:03.958Z,11.00
2023-05-25T23:32:32.045Z,10.80
2023-05-25T23:35:00.133Z,10.90
2023-05-25T23:37:29.029Z,10.90
2023-05-25T23:39:58.384Z,10.80
2023-05-25T23:42:28.614Z,10.70
2023-05-25T23:44:57.017Z,10.70
2023-05-25T23:47:25.021Z,10.70
2023-05-25T23:49:52.986Z,10.70
2023-05-25T23:52:21.061Z,10.70
2023-05-25T23:54:49.092Z,10.70
2023-05-25T23:57:18.445Z,10.60
2023-05-25T23:59:46.450Z,10.70
